Flight Track Log - Related Links

Times and Time Zones

All times are in EDT time to prevent confusion due to time zone crossing. See the UAL4596 flight status page for this flight to view local times or setup timezone preferences in your user account.

Time Position Orientation Groundspeed Altitude Reporting Facility
EDT Latitude Longitude Course Direction KTS MPH feet Rate Location/Type
Tue 06:21:36 PM 38.7256 -90.2461 96° East 177 204 2,000  Level FAA TRACON SMA TRACON (SMA)
Tue 06:21:55 PM 38.7242 -90.2239 95° East 197 227 2,400 1,350 Climbing FAA TRACON SMA TRACON (SMA)
Tue 06:22:16 PM 38.7217 -90.1997 98° East 217 250 2,900 1,756 Climbing FAA TRACON SMA TRACON (SMA)
Tue 06:22:36 PM 38.7192 -90.1675 96° East 236 272 3,600 1,950 Climbing FAA TRACON SMA TRACON (SMA)
Tue 06:22:56 PM 38.7167 -90.1400 97° East 248 285 4,200 1,650 Climbing FAA TRACON SMA TRACON (SMA)
Tue 06:23:16 PM 38.7161 -90.1111 91° East 262 302 4,700 1,756 Climbing FAA TRACON SMA TRACON (SMA)
Tue 06:23:37 PM 38.7192 -90.0728 84° East 278 320 5,400 2,195 Climbing FAA TRACON SMA TRACON (SMA)
Tue 06:23:57 PM 38.7225 -90.0422 82° East 285 328 6,200 2,700 Climbing FAA TRACON SMA TRACON (SMA)
Tue 06:24:00 PM 38.7612 -89.8136 87° East  Level FlightAware Approximate
Tue 06:24:17 PM 38.7267 -90.0039 82° East 283 326 7,200  Level FAA TRACON SMA TRACON (SMA)
Tue 06:24:37 PM 38.7303 -89.9722 82° East 288 331 7,500 1,538 Climbing FAA TRACON SMA TRACON (SMA)
Tue 06:24:56 PM 38.7336 -89.9397 82° East 297 342 8,200 2,000 Climbing FAA TRACON SMA TRACON (SMA)
Tue 06:25:00 PM 38.7664 -89.6751 87° East  Level FlightAware Approximate
Tue 06:25:16 PM 38.7375 -89.9072 81° East 301 346 8,800  Level FAA TRACON SMA TRACON (SMA)
Tue 06:25:36 PM 38.7425 -89.8650 81° East 311 358 9,300 1,500 Climbing FAA TRACON SMA TRACON (SMA)
Tue 06:25:56 PM 38.7461 -89.8303 82° East 318 366 9,800 1,500 Climbing FAA TRACON SMA TRACON (SMA)
Tue 06:26:00 PM 38.7842 -89.5385 84° East  Level FlightAware Approximate
Tue 06:26:16 PM 38.7508 -89.7947 80° East 327 376 10,300  Level FAA TRACON SMA TRACON (SMA)
Tue 06:26:35 PM 38.7556 -89.7483 83° East 340 391 10,500 600 Climbing FAA TRACON SMA TRACON (SMA)
Tue 06:26:56 PM 38.7594 -89.7092 83° East 356 410 10,700 585 Climbing FAA TRACON SMA TRACON (SMA)
Tue 06:27:16 PM 38.7644 -89.6689 81° East 370 426 10,900 600 Climbing FAA TRACON SMA TRACON (SMA)
Tue 06:27:36 PM 38.7694 -89.6164 83° East 385 443 11,100 769 Climbing FAA TRACON SMA TRACON (SMA)
Tue 06:27:55 PM 38.7756 -89.5736 80° East 393 452 11,400 1,050 Climbing FAA TRACON SMA TRACON (SMA)
Tue 06:28:16 PM 38.7819 -89.5194 81° East 401 461 11,800 1,171 Climbing FAA TRACON SMA TRACON (SMA)
Tue 06:28:36 PM 38.7872 -89.4756 81° East 404 465 12,200 1,385 Climbing FAA TRACON SMA TRACON (SMA)
Tue 06:28:55 PM 38.7925 -89.4325 81° East 402 463 12,700 1,350 Climbing FAA TRACON SMA TRACON (SMA)
Tue 06:29:16 PM 38.7983 -89.3886 80° East 402 463 13,100 1,463 Climbing FAA TRACON SMA TRACON (SMA)
Tue 06:29:36 PM 38.8064 -89.3344 79° East 404 465 13,700 1,538 Climbing FAA TRACON SMA TRACON (SMA)
Tue 06:29:55 PM 38.8114 -89.2911 82° East 401 461 14,100 1,500 Climbing FAA TRACON SMA TRACON (SMA)
Tue 06:30:16 PM 38.8192 -89.2367 80° East 403 464 14,700 1,610 Climbing FAA TRACON SMA TRACON (SMA)
Tue 06:30:36 PM 38.8261 -89.1931 78° East 405 466 15,200 1,385 Climbing FAA TRACON SMA TRACON (SMA)
Tue 06:30:55 PM 38.8308 -89.1492 82° East 404 465 15,600 1,350 Climbing FAA TRACON SMA TRACON (SMA)
Tue 06:31:16 PM 38.8392 -89.0947 79° East 406 467 16,100 878 Climbing FAA TRACON SMA TRACON (SMA)
Tue 06:31:36 PM 38.8425 -89.0725 79° East 407 468 16,200 1,038 Climbing FAA TRACON SMA TRACON (SMA)
Tue 06:32:08 PM 38.8519 -89.0317 73° East 409 471 17,000 1,313 Climbing Kansas City Center
Tue 06:33:12 PM 38.8711 -88.8931 80° East 413 475 18,300 1,200 Climbing Kansas City Center
Tue 06:34:13 PM 38.8906 -88.7433 80° East 422 486 19,500 1,171 Climbing Kansas City Center
Tue 06:35:15 PM 38.9106 -88.5861 81° East 426 490 20,700 1,258 Climbing Kansas City Center
Tue 06:36:17 PM 38.9342 -88.4356 79° East 427 491 22,100 1,421 Climbing Kansas City Center
Tue 06:37:09 PM 38.9725 -88.2925 71° East 428 493 23,400 1,421 Climbing Indianapolis Center
Tue 06:38:11 PM 39.0139 -88.1494 70° East 426 490 24,800 1,306 Climbing Indianapolis Center
Tue 06:39:13 PM 39.0528 -88.0069 71° East 422 486 26,100 1,210 Climbing Indianapolis Center
Tue 06:40:15 PM 39.0917 -87.8669 70° East 417 480 27,300 1,113 Climbing Indianapolis Center
Tue 06:41:17 PM 39.1303 -87.7253 71° East 416 479 28,400 1,113 Climbing Indianapolis Center
Tue 06:42:19 PM 39.1683 -87.5867 70° East 412 474 29,600 1,161 Climbing Indianapolis Center
Tue 06:43:21 PM 39.2067 -87.4450 71° East 413 475 30,800 1,113 Climbing Indianapolis Center
Tue 06:44:23 PM 39.2444 -87.3042 71° East 413 475 31,900 581 Climbing Indianapolis Center
Tue 06:45:25 PM 39.2925 -87.1292 70° East 428 493 32,000 48 Climbing Indianapolis Center
Tue 06:46:27 PM 39.3336 -86.9692 72° East 459 528 32,000  Level Indianapolis Center
Tue 06:47:29 PM 39.3781 -86.8069 70° East 473 544 32,000 290 Level Indianapolis Center
Tue 06:48:31 PM 39.4194 -86.6417 72° East 478 550 32,600 871 Climbing Indianapolis Center
Tue 06:49:33 PM 39.4622 -86.4847 71° East 467 537 33,800 1,152 Climbing Indianapolis Center
Tue 06:50:36 PM 39.5033 -86.3325 71° East 455 524 35,000 576 Climbing Indianapolis Center
Tue 06:51:38 PM 39.5442 -86.1778 71° East 451 519 35,000  Level Indianapolis Center
Tue 06:52:40 PM 39.6183 -85.9950 62° Northeast 477 549 35,000  Level Indianapolis Center
Tue 06:53:42 PM 39.6853 -85.8453 60° Northeast 478 550 35,000  Level Indianapolis Center
Tue 06:54:44 PM 39.7456 -85.7061 61° Northeast 476 548 35,000  Level Indianapolis Center
Tue 06:55:46 PM 39.8114 -85.5542 61° Northeast 478 550 35,000 -48 Level Indianapolis Center
Tue 06:56:48 PM 39.8881 -85.3767 61° Northeast 478 550 34,900  Descending Indianapolis Center
Tue 06:57:50 PM 39.9533 -85.2247 61° Northeast 477 549 35,000 48 Climbing Indianapolis Center
Tue 06:58:52 PM 40.0283 -85.0800 56° Northeast 478 550 35,000  Level Indianapolis Center
Tue 06:59:54 PM 40.1108 -84.9450 51° Northeast 473 544 35,000  Level Indianapolis Center
Tue 07:00:56 PM 40.1933 -84.8075 52° Northeast 475 547 35,000  Level Indianapolis Center
Tue 07:01:58 PM 40.2747 -84.6686 52° Northeast 477 549 35,000  Level Indianapolis Center
Tue 07:03:00 PM 40.3375 -84.5125 62° Northeast 481 554 35,000  Level Indianapolis Center
Tue 07:04:02 PM 40.4003 -84.3544 62° Northeast 482 555 35,000  Level Indianapolis Center
Tue 07:05:04 PM 40.4633 -84.1964 62° Northeast 482 555 35,000  Level Indianapolis Center
Tue 07:06:06 PM 40.5358 -84.0106 63° Northeast 483 556 35,000  Level Indianapolis Center
Tue 07:07:07 PM 40.5969 -83.8511 63° Northeast 482 555 35,000  Level Indianapolis Center
Tue 07:08:09 PM 40.6597 -83.6917 63° Northeast 484 557 35,000  Level Indianapolis Center
Tue 07:09:11 PM 40.7214 -83.5325 63° Northeast 483 556 35,000  Level Indianapolis Center
Tue 07:09:33 PM 40.7456 -83.4692 63° Northeast 479 551 35,000  Level Cleveland Center
Tue 07:10:33 PM 40.8058 -83.3100 63° Northeast 484 557 35,000  Level Cleveland Center
Tue 07:11:33 PM 40.8678 -83.1531 62° Northeast 479 551 35,000  Level Cleveland Center
Tue 07:12:33 PM 40.9167 -83.0150 65° Northeast 472 543 35,000  Level Cleveland Center
Tue 07:13:33 PM 40.9761 -82.8603 63° Northeast 467 537 35,000  Level Cleveland Center
Tue 07:14:33 PM 41.0378 -82.6972 63° Northeast 457 526 35,000  Level Cleveland Center
Tue 07:15:33 PM 41.0947 -82.5419 64° Northeast 457 526 35,000  Level Cleveland Center
Tue 07:16:33 PM 41.1514 -82.3950 63° Northeast 457 526 35,000  Level Cleveland Center
Tue 07:17:33 PM 41.2078 -82.2419 64° Northeast 457 526 35,000  Level Cleveland Center
Tue 07:18:33 PM 41.2600 -82.0997 64° Northeast 467 537 35,000  Level Cleveland Center
Tue 07:19:33 PM 41.3181 -81.9406 64° Northeast 467 537 35,000  Level Cleveland Center
Tue 07:20:33 PM 41.3742 -81.7867 64° Northeast 462 532 35,000  Level Cleveland Center
Tue 07:21:33 PM 41.4342 -81.6272 63° Northeast 463 533 35,000  Level Cleveland Center
Tue 07:22:33 PM 41.4875 -81.4728 65° Northeast 463 533 35,000  Level Cleveland Center
Tue 07:23:33 PM 41.5469 -81.3017 65° Northeast 463 533 35,000  Level Cleveland Center
Tue 07:24:33 PM 41.6022 -81.1497 64° Northeast 463 533 35,000  Level Cleveland Center
Tue 07:25:33 PM 41.6342 -80.9806 76° East 458 527 35,000  Level Cleveland Center
Tue 07:26:33 PM 41.6261 -80.8053 93° East 464 534 35,000  Level Cleveland Center
Tue 07:27:33 PM 41.6203 -80.6275 92° East 464 534 35,000  Level Cleveland Center
Tue 07:28:33 PM 41.6158 -80.4497 92° East 481 554 35,000  Level Cleveland Center
Tue 07:29:33 PM 41.6114 -80.2803 92° East 486 559 35,000  Level Cleveland Center
Tue 07:30:33 PM 41.6067 -80.1028 92° East 486 559 35,000  Level Cleveland Center
Tue 07:31:33 PM 41.5994 -79.9222 93° East 486 559 35,000  Level Cleveland Center
Tue 07:32:33 PM 41.5922 -79.7392 93° East 481 554 35,000  Level Cleveland Center
Tue 07:33:33 PM 41.5844 -79.5561 93° East 481 554 35,000  Level Cleveland Center
Tue 07:34:33 PM 41.5681 -79.3758 97° East 486 559 35,000  Level Cleveland Center
Tue 07:35:33 PM 41.5556 -79.1958 95° East 486 559 35,000  Level Cleveland Center
Tue 07:36:33 PM 41.5406 -79.0131 96° East 486 559 35,000  Level Cleveland Center
Tue 07:37:33 PM 41.5256 -78.8331 96° East 486 559 35,000 -710 Level Cleveland Center
Tue 07:39:39 PM 41.4969 -78.4658 96° East 478 550 32,800 -1,091 Descending New York Center
Tue 07:40:40 PM 41.4814 -78.2897 97° East 478 550 31,600 -893 Descending New York Center
Tue 07:41:40 PM 41.4656 -78.1078 97° East 484 557 31,000 -298 Descending New York Center
Tue 07:42:41 PM 41.4472 -77.9286 98° East 484 557 31,000  Level New York Center
Tue 07:43:42 PM 41.4331 -77.7500 96° East 484 557 31,000 -99 Level New York Center
Tue 07:44:42 PM 41.4131 -77.5514 98° East 489 563 30,800 -700 Descending New York Center
Tue 07:45:42 PM 41.3939 -77.3753 98° East 484 557 29,600 -1,220 Descending New York Center
Tue 07:46:40 PM 41.3789 -77.1967 96° East 484 557 28,400 -1,169 Descending New York Center
Tue 07:47:40 PM 41.3614 -77.0153 97° East 484 557 27,300 -1,140 Descending New York Center
Tue 07:48:41 PM 41.3436 -76.8339 97° East 489 563 26,100 -1,230 Descending New York Center
Tue 07:49:42 PM 41.3067 -76.6594 106° East 489 563 24,800 -1,261 Descending New York Center
Tue 07:50:40 PM 41.2606 -76.4953 110° East 484 557 23,600 -1,220 Descending New York Center
Tue 07:51:40 PM 41.2197 -76.3456 110° East 484 557 22,400 -1,350 Descending New York Center
Tue 07:52:40 PM 41.1753 -76.1819 110° East 479 551 20,900 -1,983 Descending New York Center
Tue 07:53:41 PM 41.1311 -76.0050 108° East 469 540 18,400 -2,410 Descending New York Center
Tue 07:54:42 PM 41.0878 -75.8503 110° East 452 520 16,000 -2,118 Descending New York Center
Tue 07:55:40 PM 41.0517 -75.7181 110° East 437 503 14,200 -1,513 Descending New York Center
Tue 07:56:41 PM 41.0083 -75.5583 110° East 427 491 13,000 -590 Descending New York Center
Tue 07:57:42 PM 40.9683 -75.4153 110° East 414 476 13,000 -694 Level New York Center
Tue 07:58:42 PM 40.9333 -75.2947 111° Southeast 402 463 11,600 -1,361 Descending New York Center
Tue 07:59:41 PM 40.8983 -75.1744 111° Southeast 363 418 10,300 -1,550 Descending New York Center
Tue 08:00:42 PM 40.8631 -75.0542 111° Southeast 326 375 8,500 -1,587 Descending New York Center
Tue 08:01:42 PM 40.8333 -74.9508 111° Southeast 306 352 7,100 -763 Descending New York Center
Tue 08:02:40 PM 40.8058 -74.8503 110° East 286 329 7,000 -50 Descending New York Center
Tue 08:03:42 PM 40.7756 -74.7556 113° Southeast 286 329 7,000 -250 Level New York Center
Tue 08:04:40 PM 40.7478 -74.6553 110° East 286 329 6,500 -508 Descending New York Center
Tue 08:05:40 PM 40.7833 -74.5833 57° Northeast 278 320 6,000 -250 Descending New York TRACON
Tue 08:06:40 PM 40.8500 -74.5333 30° Northeast 286 329 6,000 -250 Level New York TRACON
Tue 08:07:40 PM 40.9167 -74.4667 37° Northeast 290 334 5,500 -750 Descending New York TRACON
Tue 08:08:40 PM 40.9333 -74.3667 78° East 280 322 4,500 -750 Descending New York TRACON
Tue 08:09:40 PM 40.9667 -74.2667 66° East 259 298 4,000 -250 Descending New York TRACON
Tue 08:10:40 PM 40.9500 -74.1833 105° East 240 276 4,000 -400 Level New York TRACON
Tue 08:11:40 PM 40.9167 -74.1167 123° Southeast 227 261 3,200 -650 Descending New York TRACON
Tue 08:12:40 PM 40.8667 -74.1000 166° South 183 211 2,700 -400 Descending New York TRACON
Tue 08:13:40 PM 40.8167 -74.1000 180° South 176 203 2,400 -595 Descending New York TRACON
Tue 08:14:41 PM 40.7667 -74.1167 194° South 170 196 1,500 -793 Descending New York TRACON
Tue 08:15:41 PM 40.7333 -74.1333 201° Southwest 137 158 800 -700 Descending New York TRACON
Tue 08:17:00 PM 40.6833 -74.1667 166° South  Level FlightAware Approximate
Tue 08:24:00 PM 40.6925 -74.1687 166° South  Level Estimated
Tue 08:25:00 PM 40.6925 -74.1687 166° South  Level Estimated

Login

Don't have an account? Register now (free) for customized features, flight alerts, and more!